Flight Track Log - Related Links

Times and Time Zones

All times are in EDT time to prevent confusion due to time zone crossing. See the FFT915 flight status page for this flight to view local times or setup timezone preferences in your user account.

Time Position Orientation Groundspeed Altitude Reporting Facility
EDT Latitude Longitude Course Direction KTS MPH feet Rate Location/Type
Fri 07:04:18 PM 41.7431 -87.8653 237° Southwest 208 239 4,700  Level Chicago Center
Fri 07:05:20 PM 41.7119 -87.9536 245° Southwest 247 284 7,900 2,952 Climbing Chicago Center
Fri 07:06:22 PM 41.7019 -88.0464 262° West 251 289 10,800 2,952 Climbing Chicago Center
Fri 07:07:24 PM 41.7111 -88.1533 277° West 269 310 14,000 2,016 Climbing Chicago Center
Fri 07:08:27 PM 41.7253 -88.2603 280° West 298 343 15,000 1,440 Climbing Chicago Center
Fri 07:09:29 PM 41.7406 -88.3767 280° West 316 364 17,000 1,984 Climbing Chicago Center
Fri 07:10:31 PM 41.7550 -88.4892 280° West 326 375 19,100 2,274 Climbing Chicago Center
Fri 07:11:33 PM 41.7747 -88.6411 280° West 345 397 21,700 2,226 Climbing Chicago Center
Fri 07:12:35 PM 41.7853 -88.7722 276° West 355 409 23,700 1,839 Climbing Chicago Center
Fri 07:13:37 PM 41.7789 -88.9075 266° West 363 418 25,500 1,694 Climbing Chicago Center
Fri 07:14:39 PM 41.7742 -89.0447 267° West 367 422 27,200 1,500 Climbing Chicago Center
Fri 07:15:41 PM 41.7692 -89.1861 267° West 376 433 28,600 1,392 Climbing Chicago Center
Fri 07:16:44 PM 41.7639 -89.3625 268° West 391 450 30,100 1,344 Climbing Chicago Center
Fri 07:17:46 PM 41.7569 -89.5092 266° West 395 455 31,400 1,258 Climbing Chicago Center
Fri 07:18:48 PM 41.7514 -89.6656 267° West 400 460 32,700 1,403 Climbing Chicago Center
Fri 07:19:50 PM 41.7453 -89.8153 267° West 400 460 34,300 1,403 Climbing Chicago Center
Fri 07:20:52 PM 41.7381 -89.9606 266° West 395 455 35,600 1,065 Climbing Chicago Center
Fri 07:21:54 PM 41.7322 -90.1033 267° West 390 449 36,500 629 Climbing Chicago Center
Fri 07:22:56 PM 41.7264 -90.2514 267° West 394 453 36,900 435 Climbing Chicago Center
Fri 07:23:58 PM 41.7181 -90.4072 266° West 416 479 37,400 528 Climbing Chicago Center
Fri 07:25:01 PM 41.7094 -90.5894 266° West 414 476 38,000 288 Climbing Chicago Center
Fri 07:26:03 PM 41.7008 -90.7514 266° West 414 476 38,000  Level Chicago Center
Fri 07:27:05 PM 41.6942 -90.9033 267° West 413 475 38,000  Level Chicago Center
Fri 07:28:07 PM 41.6853 -91.0581 266° West 414 476 38,000  Level Chicago Center
Fri 07:29:09 PM 41.6761 -91.2114 265° West 416 479 38,000  Level Chicago Center
Fri 07:30:11 PM 41.6689 -91.3628 266° West 415 478 38,000 -48 Level Chicago Center
Fri 07:31:13 PM 41.6608 -91.5139 266° West 413 475 37,900  Descending Chicago Center
Fri 07:32:15 PM 41.6494 -91.6936 265° West 409 471 38,000 48 Climbing Chicago Center
Fri 07:33:18 PM 41.6400 -91.8450 265° West 409 471 38,000  Level Chicago Center
Fri 07:34:20 PM 41.6317 -91.9961 266° West 409 471 38,000  Level Chicago Center
Fri 07:35:22 PM 41.6217 -92.1450 265° West 407 468 38,000  Level Chicago Center
Fri 07:36:24 PM 41.6122 -92.2964 265° West 408 470 38,000  Level Chicago Center
Fri 07:37:26 PM 41.6006 -92.4747 265° West 407 468 38,000  Level Chicago Center
Fri 07:38:28 PM 41.5908 -92.6286 265° West 412 474 38,000  Level Chicago Center
Fri 07:39:30 PM 41.5811 -92.7733 265° West 416 479 38,000  Level Chicago Center
Fri 07:40:32 PM 41.5697 -92.9250 264° West 416 479 38,000  Level Chicago Center
Fri 07:41:35 PM 41.5569 -93.1122 265° West 425 489 38,000  Level Chicago Center
Fri 07:42:37 PM 41.5456 -93.2647 264° West 422 486 38,000  Level Chicago Center
Fri 07:43:39 PM 41.5347 -93.4183 265° West 422 486 38,000  Level Chicago Center
Fri 07:44:41 PM 41.5233 -93.5722 264° West 422 486 38,000  Level Chicago Center
Fri 07:45:43 PM 41.5083 -93.7547 264° West 420 483 38,000  Level Chicago Center
Fri 07:46:45 PM 41.4975 -93.9061 265° West 418 481 38,000  Level Chicago Center
Fri 07:47:47 PM 41.4844 -94.0572 263° West 416 479 38,000  Level Chicago Center
Fri 07:48:49 PM 41.4733 -94.2036 264° West 409 471 38,000  Level Chicago Center
Fri 07:49:51 PM 41.4608 -94.3519 264° West 405 466 38,000  Level Chicago Center
Fri 07:51:14 PM 41.4425 -94.5753 264° West 407 468 38,000  Level Minneapolis Center
Fri 07:52:16 PM 41.4314 -94.7247 264° West 407 468 38,000  Level Minneapolis Center
Fri 07:53:18 PM 41.4178 -94.8736 263° West 407 468 38,000 -49 Level Minneapolis Center
Fri 07:54:19 PM 41.4039 -95.0222 263° West 406 467 37,900  Descending Minneapolis Center
Fri 07:55:21 PM 41.3917 -95.1717 264° West 406 467 38,000 48 Climbing Minneapolis Center
Fri 07:56:23 PM 41.3747 -95.3547 263° West 411 473 38,000  Level Minneapolis Center
Fri 07:57:25 PM 41.3603 -95.5061 263° West 411 473 38,000  Level Minneapolis Center
Fri 07:58:26 PM 41.3478 -95.6511 263° West 416 479 38,000  Level Minneapolis Center
Fri 07:59:28 PM 41.3328 -95.8025 263° West 416 479 38,000  Level Minneapolis Center
Fri 08:00:30 PM 41.3189 -95.9542 263° West 416 479 38,000  Level Minneapolis Center
Fri 08:01:32 PM 41.3000 -96.1350 262° West 415 478 38,000  Level Minneapolis Center
Fri 08:02:34 PM 41.2858 -96.2814 263° West 406 467 38,000 -49 Level Minneapolis Center
Fri 08:03:35 PM 41.2731 -96.4203 263° West 404 465 37,900 -537 Descending Minneapolis Center
Fri 08:04:37 PM 41.2586 -96.5653 262° West 398 458 36,900 -919 Descending Minneapolis Center
Fri 08:05:39 PM 41.2422 -96.7072 261° West 392 451 36,000 -435 Descending Minneapolis Center
Fri 08:06:41 PM 41.2281 -96.8503 263° West 392 451 36,000  Level Minneapolis Center
Fri 08:07:43 PM 41.2094 -97.0211 262° West 392 451 36,000  Level Minneapolis Center
Fri 08:08:44 PM 41.1944 -97.1644 262° West 391 450 36,000  Level Minneapolis Center
Fri 08:09:46 PM 41.1792 -97.3069 262° West 391 450 36,000  Level Minneapolis Center
Fri 08:10:48 PM 41.1619 -97.4583 261° West 391 450 36,000  Level Minneapolis Center
Fri 08:11:50 PM 41.1464 -97.6028 262° West 392 451 36,000  Level Minneapolis Center
Fri 08:12:51 PM 41.1303 -97.7467 262° West 393 452 36,000  Level Minneapolis Center
Fri 08:13:53 PM 41.1139 -97.8919 262° West 394 453 36,000  Level Minneapolis Center
Fri 08:14:55 PM 41.0978 -98.0367 262° West 394 453 36,000  Level Minneapolis Center
Fri 08:15:57 PM 41.0806 -98.1819 261° West 395 455 36,000  Level Minneapolis Center
Fri 08:16:58 PM 41.0606 -98.3567 261° West 398 458 36,000  Level Minneapolis Center
Fri 08:18:00 PM 41.0458 -98.4911 262° West 398 458 36,000  Level Minneapolis Center
Fri 08:19:02 PM 41.0306 -98.6367 262° West 398 458 36,000  Level Minneapolis Center
Fri 08:20:04 PM 41.0114 -98.7819 260° West 398 458 36,000  Level Minneapolis Center
Fri 08:21:05 PM 40.9961 -98.9303 262° West 403 464 36,000  Level Minneapolis Center
Fri 08:22:07 PM 40.9761 -99.1064 262° West 403 464 36,000  Level Minneapolis Center
Fri 08:22:47 PM 40.9672 -99.1864 262° West 402 463 36,000  Level Denver Center
Fri 08:23:49 PM 40.9494 -99.3344 261° West 402 463 36,000  Level Denver Center
Fri 08:24:51 PM 40.9322 -99.4806 261° West 403 464 36,000  Level Denver Center
Fri 08:25:53 PM 40.9114 -99.6572 261° West 403 464 36,000  Level Denver Center
Fri 08:26:55 PM 40.8933 -99.8033 261° West 403 464 36,000  Level Denver Center
Fri 08:27:58 PM 40.8753 -99.9519 261° West 403 464 36,000  Level Denver Center
Fri 08:29:00 PM 40.8581 -100.0925 261° West 403 464 36,000  Level Denver Center
Fri 08:30:02 PM 40.8369 -100.2578 260° West 404 465 36,000  Level Denver Center
Fri 08:31:04 PM 40.8194 -100.3989 261° West 406 467 36,000  Level Denver Center
Fri 08:32:06 PM 40.7989 -100.5631 261° West 406 467 36,000  Level Denver Center
Fri 08:33:08 PM 40.7778 -100.7167 260° West 406 467 36,000  Level Denver Center
Fri 08:34:10 PM 40.7533 -100.8550 257° West 413 475 36,000  Level Denver Center
Fri 08:35:12 PM 40.7267 -101.0203 258° West 412 474 36,000  Level Denver Center
Fri 08:36:14 PM 40.7022 -101.1611 257° West 412 474 36,000  Level Denver Center
Fri 08:37:16 PM 40.6736 -101.3233 257° West 409 471 36,000  Level Denver Center
Fri 08:38:18 PM 40.6494 -101.4636 257° West 410 472 36,000  Level Denver Center
Fri 08:39:20 PM 40.6203 -101.6275 257° West 410 472 36,000  Level Denver Center
Fri 08:40:22 PM 40.5944 -101.7683 256° West 412 474 36,000  Level Denver Center
Fri 08:41:24 PM 40.5642 -101.9328 256° West 414 476 36,000 -48 Level Denver Center
Fri 08:42:26 PM 40.5386 -102.0731 257° West 414 476 35,900 -484 Descending Denver Center
Fri 08:43:28 PM 40.5122 -102.2117 256° West 412 474 35,000 -968 Descending Denver Center
Fri 08:44:30 PM 40.4828 -102.3761 257° West 412 474 33,900 -968 Descending Denver Center
Fri 08:45:32 PM 40.4569 -102.5175 257° West 416 479 33,000 -968 Descending Denver Center
Fri 08:46:34 PM 40.4261 -102.6817 256° West 436 502 31,900 -1,016 Descending Denver Center
Fri 08:47:36 PM 40.3969 -102.8358 256° West 437 503 30,900 -968 Descending Denver Center
Fri 08:48:38 PM 40.3678 -102.9917 256° West 441 507 29,900 -1,065 Descending Denver Center
Fri 08:49:40 PM 40.3319 -103.1753 256° West 438 504 28,700 -1,597 Descending Denver Center
Fri 08:50:42 PM 40.3031 -103.3267 256° West 433 498 26,600 -2,081 Descending Denver Center
Fri 08:51:44 PM 40.2739 -103.4706 255° West 415 478 24,400 -2,098 Descending Denver Center
Fri 08:52:45 PM 40.2469 -103.6108 256° West 402 463 22,300 -1,778 Descending Denver Center
Fri 08:53:59 PM 40.2186 -103.7644 256° West 393 452 20,400 -1,314 Descending Denver Center
Fri 08:55:02 PM 40.1756 -103.9056 248° West 342 394 19,300 -1,104 Descending Denver Center
Fri 08:56:04 PM 40.1286 -104.0067 239° Southwest 332 382 18,100 -1,161 Descending Denver Center
Fri 08:57:06 PM 40.0794 -104.1131 239° Southwest 321 369 16,900 -1,161 Descending Denver Center
Fri 08:58:08 PM 40.0350 -104.2108 239° Southwest 316 364 15,700 -1,122 Descending Denver Center
Fri 08:59:09 PM 39.9900 -104.3056 238° Southwest 305 351 14,600 -1,122 Descending Denver Center
Fri 09:00:11 PM 39.9431 -104.4061 239° Southwest 301 346 13,400 -871 Descending Denver Center
Fri 09:01:13 PM 39.9081 -104.4811 239° Southwest 293 337 12,800 -1,016 Descending Denver Center
Fri 09:02:15 PM 39.8200 -104.5000 189° South 269 310 11,300 -1,210 Descending Denver Center
Fri 09:03:17 PM 39.7478 -104.5019 181° South 261 300 10,300 -726 Descending Denver Center
Fri 09:04:19 PM 39.6761 -104.5036 181° South 254 292 9,800 -532 Descending Denver Center
Fri 09:05:21 PM 39.6042 -104.5042 180° South 246 283 9,200 -435 Descending Denver Center
Fri 09:06:23 PM 39.5883 -104.5711 253° West 208 239 8,900 -146 Descending Denver Center
Fri 09:07:24 PM 39.6275 -104.6183 317° Northwest 199 229 8,900 -341 Level Denver Center
Fri 09:08:26 PM 39.6775 -104.6431 339° North 192 221 8,200 -823 Descending Denver Center
Fri 09:09:28 PM 39.7322 -104.6431 360° North 198 228 7,200 -968 Descending Denver Center
Fri 09:10:30 PM 39.7861 -104.6422 North 183 211 6,200 -823 Descending Denver Center
Fri 09:11:32 PM 39.8244 -104.6417 North 143 165 5,500 -677 Descending Denver Center
Fri 09:13:00 PM 39.8500 -104.6667 341° North  Level FlightAware Approximate
Fri 09:20:00 PM 39.8617 -104.6732 341° North  Level Estimated
Fri 09:21:00 PM 39.8617 -104.6732 North  Level Estimated

Login

Don't have an account? Register now (free) for customized features, flight alerts, and more!